Station History

Weather Underground - logo

Station Historical Data
Daily Summary for November 13, 2017 Units:  English    Metric   Both
« Previous Day
Next Day »
Daily Weekly Monthly Yearly Custom
  High: Low: Average:
Temperature: 68.6 °F 41.2 °F 54.2 °F
Dew Point: 53.5 °F 39.4 °F 47.7 °F
Humidity: 96 % 54 % 80 %
Wind Speed: 3.5 mph 0.0 mph 0.5 mph
Wind Gust: 3.5 mph - -
Wind:- - SW
Pressure: 30.26 in 30.15 in -
Precipitation: 0.00 in    
Historical Graphs
 
 
Tabular Data for November 13, 2017
Time Temperature Dew Point Pressure Wind Wind Speed Wind Gust Humidity Rainfall Rate (Hourly)
00:04 46.7 °F 44.2 °F 30.17 in Calm     91 % 0.00 in
00:09 46.4 °F 43.9 °F 30.18 in Calm     91 % 0.00 in
00:14 46.1 °F 43.6 °F 30.18 in Calm     91 % 0.00 in
00:19 45.9 °F 43.7 °F 30.18 in Calm     92 % 0.00 in
00:24 45.7 °F 43.5 °F 30.18 in Calm     92 % 0.00 in
00:30 45.9 °F 44.0 °F 30.18 in Calm     93 % 0.00 in
00:35 45.9 °F 44.0 °F 30.17 in Calm     93 % 0.00 in
00:40 46.3 °F 44.7 °F 30.18 in West 1.0 mph   94 % 0.00 in
00:45 46.6 °F 45.0 °F 30.18 in Calm     94 % 0.00 in
00:50 46.5 °F 44.6 °F 30.18 in Calm     93 % 0.00 in
00:55 46.3 °F 44.4 °F 30.18 in Calm     93 % 0.00 in
01:00 46.1 °F 43.9 °F 30.18 in Calm     92 % 0.00 in
01:05 45.8 °F 43.6 °F 30.18 in Calm     92 % 0.00 in
01:10 45.5 °F 43.3 °F 30.18 in Calm     92 % 0.00 in
01:15 45.1 °F 42.9 °F 30.18 in Calm     92 % 0.00 in
01:20 44.9 °F 42.7 °F 30.18 in Calm     92 % 0.00 in
01:25 44.7 °F 42.5 °F 30.17 in Calm     92 % 0.00 in
01:30 44.6 °F 42.4 °F 30.17 in Calm     92 % 0.00 in
01:35 44.4 °F 42.2 °F 30.17 in Calm     92 % 0.00 in
01:40 44.4 °F 42.5 °F 30.17 in Calm     93 % 0.00 in
01:45 44.3 °F 42.4 °F 30.17 in Calm     93 % 0.00 in
01:50 44.3 °F 42.4 °F 30.17 in West 1.2 mph 1.2 mph 93 % 0.00 in
01:55 44.2 °F 42.3 °F 30.17 in Calm     93 % 0.00 in
02:00 44.2 °F 42.3 °F 30.17 in Calm     93 % 0.00 in
02:05 44.4 °F 42.8 °F 30.17 in Calm     94 % 0.00 in
02:10 44.6 °F 43.0 °F 30.16 in Calm     94 % 0.00 in
02:15 44.7 °F 43.1 °F 30.16 in Calm     94 % 0.00 in
02:20 44.7 °F 43.1 °F 30.16 in Calm     94 % 0.00 in
02:25 44.7 °F 43.1 °F 30.16 in Calm     94 % 0.00 in
02:30 44.7 °F 43.1 °F 30.16 in Calm     94 % 0.00 in
02:35 44.5 °F 42.9 °F 30.16 in Calm     94 % 0.00 in
02:40 44.2 °F 42.6 °F 30.16 in Calm     94 % 0.00 in
02:45 43.9 °F 42.0 °F 30.16 in Calm     93 % 0.00 in
02:50 43.7 °F 41.8 °F 30.16 in Calm     93 % 0.00 in
02:55 43.6 °F 42.0 °F 30.16 in Calm     94 % 0.00 in
03:00 43.5 °F 41.9 °F 30.16 in Calm     94 % 0.00 in
03:05 43.5 °F 41.9 °F 30.17 in Calm     94 % 0.00 in
03:10 43.3 °F 41.4 °F 30.17 in Calm     93 % 0.00 in
03:15 43.1 °F 41.2 °F 30.17 in Calm     93 % 0.00 in
03:20 43.1 °F 41.2 °F 30.17 in Calm     93 % 0.00 in
03:25 43.4 °F 41.8 °F 30.17 in Calm     94 % 0.00 in
03:30 43.4 °F 41.8 °F 30.18 in Calm     94 % 0.00 in
03:35 43.4 °F 41.8 °F 30.17 in Calm     94 % 0.00 in
03:40 43.1 °F 41.2 °F 30.17 in Calm     93 % 0.00 in
03:45 42.9 °F 41.0 °F 30.17 in Calm     93 % 0.00 in
03:50 42.9 °F 41.3 °F 30.17 in Calm     94 % 0.00 in
03:55 42.9 °F 41.3 °F 30.18 in Calm     94 % 0.00 in
04:00 42.7 °F 41.1 °F 30.18 in Calm     94 % 0.00 in
04:05 42.7 °F 41.1 °F 30.18 in Calm     94 % 0.00 in
04:10 42.8 °F 41.2 °F 30.18 in Calm     94 % 0.00 in
04:15 43.1 °F 41.5 °F 30.18 in Calm     94 % 0.00 in
04:20 43.6 °F 42.3 °F 30.19 in Calm     95 % 0.00 in
04:25 43.8 °F 42.5 °F 30.19 in Calm     95 % 0.00 in
04:30 43.9 °F 42.6 °F 30.19 in Calm     95 % 0.00 in
04:35 44.2 °F 42.9 °F 30.19 in Calm     95 % 0.00 in
04:40 44.4 °F 43.1 °F 30.19 in Calm     95 % 0.00 in
04:46 44.3 °F 43.0 °F 30.19 in Calm     95 % 0.00 in
04:51 44.2 °F 42.9 °F 30.19 in Calm     95 % 0.00 in
04:56 44.1 °F 42.8 °F 30.19 in Calm     95 % 0.00 in
05:01 44.1 °F 42.8 °F 30.20 in Calm     95 % 0.00 in
05:06 44.2 °F 42.9 °F 30.19 in Calm     95 % 0.00 in
05:11 44.1 °F 42.8 °F 30.20 in Calm     95 % 0.00 in
05:16 44.1 °F 42.8 °F 30.20 in Calm     95 % 0.00 in
05:21 44.3 °F 43.0 °F 30.20 in Calm     95 % 0.00 in
05:26 44.3 °F 43.0 °F 30.20 in Calm     95 % 0.00 in
05:31 44.4 °F 43.1 °F 30.20 in Calm     95 % 0.00 in
05:36 44.7 °F 43.4 °F 30.20 in Calm     95 % 0.00 in
05:41 44.7 °F 43.4 °F 30.20 in Calm     95 % 0.00 in
05:46 44.6 °F 43.3 °F 30.21 in Calm     95 % 0.00 in
05:51 44.2 °F 42.9 °F 30.21 in West 1.2 mph 1.2 mph 95 % 0.00 in
05:56 43.1 °F 41.2 °F 30.21 in Calm     93 % 0.00 in
05:57 42.8 °F 40.9 °F 30.21 in Calm     93 % 0.00 in
06:02 42.2 °F 40.3 °F 30.21 in Calm     93 % 0.00 in
06:07 41.7 °F 39.8 °F 30.22 in Calm     93 % 0.00 in
06:12 41.4 °F 39.5 °F 30.22 in Calm     93 % 0.00 in
06:17 41.3 °F 39.4 °F 30.22 in Calm     93 % 0.00 in
06:23 41.2 °F 39.6 °F 30.22 in Calm     94 % 0.00 in
06:28 41.2 °F 39.6 °F 30.22 in Calm     94 % 0.00 in
06:33 41.2 °F 39.6 °F 30.22 in West 1.2 mph 1.2 mph 94 % 0.00 in
06:38 41.4 °F 39.8 °F 30.22 in Calm     94 % 0.00 in
06:43 41.6 °F 40.3 °F 30.22 in Calm     95 % 0.00 in
06:48 41.9 °F 40.6 °F 30.22 in Calm     95 % 0.00 in
06:53 42.2 °F 40.9 °F 30.23 in Calm     95 % 0.00 in
06:58 42.5 °F 41.2 °F 30.23 in Calm     95 % 0.00 in
07:03 42.7 °F 41.4 °F 30.23 in Calm     95 % 0.00 in
07:08 42.8 °F 41.5 °F 30.24 in Calm     95 % 0.00 in
07:13 43.0 °F 41.7 °F 30.24 in Calm     95 % 0.00 in
07:18 43.1 °F 41.8 °F 30.24 in Calm     95 % 0.00 in
07:23 43.2 °F 41.9 °F 30.24 in Calm     95 % 0.00 in
07:28 43.9 °F 42.6 °F 30.24 in Calm     95 % 0.00 in
07:33 44.9 °F 43.8 °F 30.24 in Calm     96 % 0.00 in
07:38 45.5 °F 44.4 °F 30.24 in Calm     96 % 0.00 in
07:43 46.1 °F 45.0 °F 30.25 in Calm     96 % 0.00 in
07:48 47.1 °F 46.0 °F 30.24 in Calm     96 % 0.00 in
07:53 47.7 °F 46.3 °F 30.25 in Calm     95 % 0.00 in
07:58 48.4 °F 47.0 °F 30.25 in Calm     95 % 0.00 in
08:03 49.2 °F 47.3 °F 30.25 in Calm     93 % 0.00 in
08:08 49.9 °F 47.7 °F 30.25 in Calm     92 % 0.00 in
08:13 50.5 °F 47.7 °F 30.25 in Calm     90 % 0.00 in
08:18 51.5 °F 48.7 °F 30.25 in Calm     90 % 0.00 in
08:23 52.8 °F 49.0 °F 30.25 in West 1.2 mph   87 % 0.00 in
08:28 53.3 °F 48.9 °F 30.25 in Calm     85 % 0.00 in
08:33 54.1 °F 49.7 °F 30.25 in Calm     85 % 0.00 in
08:38 55.5 °F 50.4 °F 30.25 in West 1.2 mph   83 % 0.00 in
08:43 55.5 °F 49.8 °F 30.25 in Calm     81 % 0.00 in
08:48 56.3 °F 50.9 °F 30.26 in SE 1.2 mph   82 % 0.00 in
08:53 57.0 °F 50.5 °F 30.25 in SSE 1.2 mph 1.2 mph 79 % 0.00 in
08:58 57.4 °F 50.9 °F 30.25 in ESE 1.2 mph   79 % 0.00 in
09:03 57.7 °F 51.2 °F 30.25 in East 1.2 mph 1.2 mph 79 % 0.00 in
09:08 57.8 °F 51.3 °F 30.25 in SSE 1.2 mph 1.2 mph 79 % 0.00 in
09:13 58.1 °F 50.9 °F 30.25 in SE 3.5 mph 3.5 mph 77 % 0.00 in
09:18 58.4 °F 51.6 °F 30.25 in South 2.3 mph 2.3 mph 78 % 0.00 in
09:23 58.9 °F 51.7 °F 30.25 in SSE 1.2 mph 1.2 mph 77 % 0.00 in
09:28 59.5 °F 51.6 °F 30.25 in SE 3.0 mph 3.0 mph 75 % 0.00 in
09:33 59.7 °F 51.8 °F 30.25 in Calm     75 % 0.00 in
09:38 60.2 °F 51.9 °F 30.26 in SSE 3.5 mph 3.5 mph 74 % 0.00 in
09:43 60.6 °F 51.9 °F 30.25 in SSW 1.2 mph 1.2 mph 73 % 0.00 in
09:48 61.1 °F 51.6 °F 30.25 in SSE 1.0 mph 1.0 mph 71 % 0.00 in
09:53 61.4 °F 51.9 °F 30.25 in ESE 3.5 mph 3.5 mph 71 % 0.00 in
09:58 61.6 °F 52.1 °F 30.25 in Calm     71 % 0.00 in
10:03 62.3 °F 52.8 °F 30.25 in Calm   0.6 mph 71 % 0.00 in
10:08 62.8 °F 52.5 °F 30.25 in SSW 1.2 mph   69 % 0.00 in
10:13 63.2 °F 52.5 °F 30.25 in ESE 3.5 mph 3.5 mph 68 % 0.00 in
10:19 63.2 °F 52.5 °F 30.25 in ESE 3.5 mph 3.5 mph 68 % 0.00 in
10:24 63.4 °F 53.4 °F 30.25 in SE 1.2 mph   70 % 0.00 in
10:29 63.7 °F 52.5 °F 30.25 in SSW 2.3 mph 2.3 mph 67 % 0.00 in
10:34 63.9 °F 53.1 °F 30.25 in South 2.3 mph 2.3 mph 68 % 0.00 in
10:39 64.2 °F 53.0 °F 30.25 in SSE 3.5 mph 3.5 mph 67 % 0.00 in
10:44 64.5 °F 52.5 °F 30.24 in WNW 2.3 mph 2.3 mph 65 % 0.00 in
10:49 64.7 °F 53.5 °F 30.24 in WNW 3.5 mph 3.5 mph 67 % 0.00 in
10:54 64.8 °F 53.2 °F 30.24 in ESE 1.2 mph 1.2 mph 66 % 0.00 in
10:59 64.9 °F 52.8 °F 30.24 in ESE 2.3 mph 2.3 mph 65 % 0.00 in
11:04 64.9 °F 52.8 °F 30.24 in SE 1.2 mph 1.2 mph 65 % 0.00 in
11:05 65.0 °F 53.4 °F 30.24 in SSE 2.3 mph 2.3 mph 66 % 0.00 in
11:10 65.0 °F 52.5 °F 30.23 in WSW 2.0 mph 2.0 mph 64 % 0.00 in
11:15 65.1 °F 52.6 °F 30.23 in NW 2.3 mph 2.3 mph 64 % 0.00 in
11:20 65.0 °F 52.5 °F 30.23 in WNW 2.3 mph 2.3 mph 64 % 0.00 in
11:25 65.2 °F 53.1 °F 30.22 in SSW 1.0 mph 1.0 mph 65 % 0.00 in
11:30 65.7 °F 52.8 °F 30.22 in ESE 1.2 mph   63 % 0.00 in
11:35 65.8 °F 52.9 °F 30.22 in WSW 1.2 mph 1.2 mph 63 % 0.00 in
11:40 66.1 °F 52.7 °F 30.21 in WNW 1.2 mph 1.2 mph 62 % 0.00 in
11:45 65.7 °F 52.8 °F 30.21 in NW 1.2 mph   63 % 0.00 in
11:50 65.8 °F 52.4 °F 30.20 in NW 2.3 mph   62 % 0.00 in
11:56 66.0 °F 52.6 °F 30.20 in ENE 1.2 mph 1.2 mph 62 % 0.00 in
12:01 66.1 °F 52.7 °F 30.19 in WNW 1.2 mph 1.2 mph 62 % 0.00 in
12:06 66.6 °F 52.7 °F 30.19 in NNW 1.2 mph 1.2 mph 61 % 0.00 in
12:11 66.7 °F 52.8 °F 30.19 in NNW 1.2 mph 1.2 mph 61 % 0.00 in
12:16 66.5 °F 52.2 °F 30.19 in NW 1.2 mph 1.2 mph 60 % 0.00 in
12:21 66.5 °F 53.1 °F 30.18 in WNW 3.5 mph 3.5 mph 62 % 0.00 in
12:26 67.0 °F 52.7 °F 30.18 in North 2.3 mph 2.3 mph 60 % 0.00 in
12:31 66.9 °F 53.0 °F 30.18 in NW 2.3 mph 2.3 mph 61 % 0.00 in
12:36 66.9 °F 53.0 °F 30.18 in SE 1.2 mph 1.2 mph 61 % 0.00 in
12:41 67.3 °F 52.9 °F 30.18 in WNW 2.3 mph 2.3 mph 60 % 0.00 in
12:46 67.2 °F 52.4 °F 30.18 in NW 1.2 mph 1.2 mph 59 % 0.00 in
12:51 67.4 °F 53.0 °F 30.18 in NW 1.2 mph 1.2 mph 60 % 0.00 in
12:56 67.6 °F 52.8 °F 30.17 in WNW 1.2 mph 1.2 mph 59 % 0.00 in
13:01 67.7 °F 53.3 °F 30.17 in WNW 2.3 mph 2.3 mph 60 % 0.00 in
13:06 67.6 °F 52.8 °F 30.17 in WNW 1.2 mph 1.2 mph 59 % 0.00 in
13:11 67.9 °F 53.0 °F 30.17 in NW 1.2 mph 1.2 mph 59 % 0.00 in
13:16 68.1 °F 52.8 °F 30.17 in West 1.2 mph 1.2 mph 58 % 0.00 in
13:21 68.3 °F 52.9 °F 30.17 in NW 1.2 mph   58 % 0.00 in
13:26 68.4 °F 52.6 °F 30.17 in NW 2.3 mph 2.3 mph 57 % 0.00 in
13:31 68.1 °F 52.3 °F 30.16 in NW 2.3 mph 2.3 mph 57 % 0.00 in
13:36 68.2 °F 52.4 °F 30.17 in NW 3.5 mph 3.5 mph 57 % 0.00 in
13:41 68.1 °F 52.3 °F 30.17 in NW 1.2 mph   57 % 0.00 in
13:46 68.2 °F 51.4 °F 30.17 in West 1.2 mph   55 % 0.00 in
13:51 68.1 °F 51.8 °F 30.17 in WNW 2.0 mph 2.0 mph 56 % 0.00 in
13:56 68.3 °F 52.5 °F 30.17 in NW 1.2 mph   57 % 0.00 in
14:01 68.3 °F 52.5 °F 30.17 in NW 2.3 mph 2.3 mph 57 % 0.00 in
14:06 68.2 °F 51.9 °F 30.16 in West 2.3 mph 2.3 mph 56 % 0.00 in
14:11 68.1 °F 51.3 °F 30.16 in WSW 1.2 mph   55 % 0.00 in
14:16 68.3 °F 52.0 °F 30.16 in ESE 1.0 mph   56 % 0.00 in
14:21 68.6 °F 52.3 °F 30.16 in NNE 1.2 mph 1.2 mph 56 % 0.00 in
14:26 68.4 °F 51.6 °F 30.17 in NW 2.3 mph 2.3 mph 55 % 0.00 in
14:31 67.9 °F 51.6 °F 30.16 in SW 1.2 mph 1.2 mph 56 % 0.00 in
14:36 67.8 °F 51.0 °F 30.16 in WNW 2.3 mph 2.3 mph 55 % 0.00 in
14:41 67.6 °F 50.9 °F 30.16 in NNW 3.5 mph 3.5 mph 55 % 0.00 in
14:46 67.6 °F 50.9 °F 30.16 in Calm     55 % 0.00 in
14:51 67.6 °F 51.3 °F 30.16 in NW 2.3 mph 2.3 mph 56 % 0.00 in
14:56 67.5 °F 51.2 °F 30.16 in NW 1.0 mph 1.0 mph 56 % 0.00 in
15:01 67.5 °F 50.8 °F 30.15 in NNW 1.2 mph 1.2 mph 55 % 0.00 in
15:06 67.6 °F 50.9 °F 30.15 in Calm     55 % 0.00 in
15:12 67.4 °F 50.7 °F 30.15 in Calm   0.7 mph 55 % 0.00 in
15:17 67.3 °F 50.6 °F 30.15 in NW 2.3 mph   55 % 0.00 in
15:22 67.1 °F 49.9 °F 30.15 in Calm     54 % 0.00 in
15:27 67.0 °F 49.8 °F 30.15 in Calm     54 % 0.00 in
15:32 67.0 °F 49.8 °F 30.15 in Calm     54 % 0.00 in
15:37 67.0 °F 51.3 °F 30.15 in Calm     57 % 0.00 in
15:42 66.8 °F 51.1 °F 30.15 in West 1.2 mph 1.2 mph 57 % 0.00 in
15:47 66.6 °F 50.9 °F 30.15 in Calm     57 % 0.00 in
15:54 66.3 °F 51.1 °F 30.15 in West 1.2 mph 1.2 mph 58 % 0.00 in
15:59 66.1 °F 50.9 °F 30.15 in Calm     58 % 0.00 in
16:00 66.1 °F 51.4 °F 30.15 in Calm     59 % 0.00 in
16:05 65.8 °F 51.1 °F 30.15 in Calm   0.1 mph 59 % 0.00 in
16:10 65.6 °F 51.3 °F 30.15 in Calm   0.1 mph 60 % 0.00 in
16:15 65.4 °F 51.1 °F 30.15 in Calm     60 % 0.00 in
16:20 65.1 °F 51.3 °F 30.15 in Calm     61 % 0.00 in
16:25 64.8 °F 51.0 °F 30.15 in Calm     61 % 0.00 in
16:30 64.4 °F 51.5 °F 30.15 in Calm     63 % 0.00 in
16:35 63.9 °F 51.1 °F 30.15 in Calm     63 % 0.00 in
16:40 63.6 °F 51.2 °F 30.15 in Calm     64 % 0.00 in
16:45 63.2 °F 51.2 °F 30.15 in Calm     65 % 0.00 in
16:50 62.8 °F 51.3 °F 30.16 in Calm     66 % 0.00 in
16:55 62.2 °F 51.1 °F 30.16 in Calm     67 % 0.00 in
17:00 61.8 °F 51.1 °F 30.16 in Calm     68 % 0.00 in
17:05 61.3 °F 51.0 °F 30.16 in Calm     69 % 0.00 in
17:10 60.7 °F 51.2 °F 30.16 in Calm     71 % 0.00 in
17:15 60.2 °F 50.8 °F 30.16 in Calm     71 % 0.00 in
17:20 59.6 °F 51.3 °F 30.16 in Calm     74 % 0.00 in
17:25 59.2 °F 51.3 °F 30.16 in Calm     75 % 0.00 in
17:30 58.7 °F 51.2 °F 30.16 in Calm     76 % 0.00 in
17:35 58.3 °F 51.1 °F 30.17 in Calm     77 % 0.00 in
17:40 57.9 °F 50.7 °F 30.16 in Calm     77 % 0.00 in
17:46 57.5 °F 50.7 °F 30.16 in Calm     78 % 0.00 in
17:51 57.2 °F 50.7 °F 30.16 in Calm     79 % 0.00 in
17:56 57.1 °F 51.0 °F 30.17 in Calm     80 % 0.00 in
18:01 57.0 °F 50.9 °F 30.17 in Calm     80 % 0.00 in
18:07 56.7 °F 50.6 °F 30.17 in Calm     80 % 0.00 in
18:14 56.3 °F 50.5 °F 30.17 in Calm     81 % 0.00 in
18:19 56.1 °F 50.7 °F 30.17 in Calm     82 % 0.00 in
18:24 55.9 °F 50.5 °F 30.17 in Calm     82 % 0.00 in
18:29 55.7 °F 50.3 °F 30.17 in Calm     82 % 0.00 in
18:34 55.4 °F 50.0 °F 30.17 in Calm     82 % 0.00 in
18:39 55.2 °F 50.1 °F 30.17 in Calm     83 % 0.00 in
18:44 54.9 °F 49.8 °F 30.17 in Calm     83 % 0.00 in
18:49 54.8 °F 50.1 °F 30.17 in Calm     84 % 0.00 in
18:54 54.6 °F 49.5 °F 30.17 in Calm     83 % 0.00 in
18:59 54.5 °F 49.4 °F 30.17 in Calm     83 % 0.00 in
19:04 54.2 °F 49.1 °F 30.17 in Calm     83 % 0.00 in
19:09 54.0 °F 49.3 °F 30.17 in Calm     84 % 0.00 in
19:15 53.6 °F 49.2 °F 30.17 in Calm     85 % 0.00 in
19:20 53.4 °F 49.0 °F 30.17 in Calm     85 % 0.00 in
19:22 53.3 °F 48.9 °F 30.17 in Calm     85 % 0.00 in
19:25 53.2 °F 49.1 °F 30.17 in Calm     86 % 0.00 in
19:30 53.1 °F 49.0 °F 30.17 in Calm     86 % 0.00 in
19:35 53.2 °F 49.1 °F 30.18 in Calm     86 % 0.00 in
19:40 53.3 °F 48.9 °F 30.18 in Calm     85 % 0.00 in
19:45 53.5 °F 48.8 °F 30.18 in Calm     84 % 0.00 in
19:50 53.5 °F 48.8 °F 30.18 in Calm     84 % 0.00 in
19:55 53.9 °F 48.9 °F 30.18 in Calm     83 % 0.00 in
20:00 53.9 °F 48.5 °F 30.18 in Calm     82 % 0.00 in
20:05 53.9 °F 48.5 °F 30.18 in Calm     82 % 0.00 in
20:10 53.7 °F 48.7 °F 30.18 in Calm     83 % 0.00 in
20:15 53.3 °F 48.3 °F 30.18 in Calm     83 % 0.00 in
20:20 53.1 °F 48.4 °F 30.19 in Calm     84 % 0.00 in
20:25 52.8 °F 48.1 °F 30.19 in Calm     84 % 0.00 in
20:30 52.6 °F 48.2 °F 30.19 in Calm     85 % 0.00 in
20:38 52.4 °F 48.3 °F 30.20 in Calm     86 % 0.00 in
20:43 52.2 °F 48.1 °F 30.20 in Calm     86 % 0.00 in
20:48 51.7 °F 47.6 °F 30.20 in Calm     86 % 0.00 in
20:53 51.0 °F 47.3 °F 30.20 in Calm     87 % 0.00 in
20:58 50.8 °F 47.1 °F 30.20 in Calm     87 % 0.00 in
21:03 50.4 °F 47.0 °F 30.20 in Calm     88 % 0.00 in
21:08 50.4 °F 47.0 °F 30.20 in Calm     88 % 0.00 in
21:14 50.4 °F 47.0 °F 30.20 in Calm     88 % 0.00 in
21:19 50.4 °F 47.3 °F 30.20 in Calm     89 % 0.00 in
21:24 50.4 °F 47.3 °F 30.20 in Calm     89 % 0.00 in
21:29 50.2 °F 46.8 °F 30.21 in Calm     88 % 0.00 in
21:34 49.9 °F 46.5 °F 30.21 in Calm     88 % 0.00 in
21:39 49.8 °F 46.4 °F 30.21 in Calm     88 % 0.00 in
21:44 49.7 °F 46.6 °F 30.20 in Calm     89 % 0.00 in
21:49 49.6 °F 46.5 °F 30.20 in Calm     89 % 0.00 in
21:54 49.5 °F 46.7 °F 30.20 in Calm     90 % 0.00 in
21:59 49.4 °F 46.6 °F 30.20 in Calm     90 % 0.00 in
22:04 49.3 °F 46.2 °F 30.20 in Calm     89 % 0.00 in
22:09 49.4 °F 46.6 °F 30.20 in Calm     90 % 0.00 in
22:14 49.8 °F 47.0 °F 30.20 in Calm     90 % 0.00 in
22:19 50.3 °F 47.5 °F 30.20 in Calm     90 % 0.00 in
22:24 50.5 °F 47.4 °F 30.20 in Calm     89 % 0.00 in
22:29 50.5 °F 47.1 °F 30.21 in Calm     88 % 0.00 in
22:34 50.3 °F 46.9 °F 30.21 in Calm     88 % 0.00 in
22:39 50.5 °F 47.1 °F 30.21 in Calm     88 % 0.00 in
22:44 50.8 °F 47.1 °F 30.21 in Calm     87 % 0.00 in
22:49 50.9 °F 47.2 °F 30.20 in Calm     87 % 0.00 in
22:54 50.9 °F 47.2 °F 30.20 in Calm     87 % 0.00 in
22:59 50.9 °F 46.9 °F 30.20 in Calm     86 % 0.00 in
23:04 50.9 °F 46.9 °F 30.20 in Calm     86 % 0.00 in
23:09 51.0 °F 47.0 °F 30.20 in Calm     86 % 0.00 in
23:14 51.1 °F 47.1 °F 30.20 in Calm     86 % 0.00 in
23:19 51.4 °F 47.4 °F 30.20 in Calm     86 % 0.00 in
23:24 51.4 °F 47.0 °F 30.20 in Calm     85 % 0.00 in
23:29 51.5 °F 47.5 °F 30.20 in Calm     86 % 0.00 in
23:35 51.2 °F 47.2 °F 30.20 in Calm     86 % 0.00 in
23:39 50.9 °F 46.9 °F 30.20 in Calm     86 % 0.00 in
23:45 50.7 °F 47.0 °F 30.20 in Calm     87 % 0.00 in
23:50 50.3 °F 46.6 °F 30.20 in Calm     87 % 0.00 in
23:55 50.0 °F 46.3 °F 30.20 in Calm     87 % 0.00 in
Park Place, Exeter, Tulare County, California, USA
Compliments of Weather Underground - 2.75 mb